Latest Weather Observations for Narrabri

IDN60801

Issued at 9:35 pm EST Friday 29 August 2014 (issued every 30 minutes, with the page automatically refreshed every 10 minutes)

About weather observations | Map of weather stations | Latest weather observations for NSW | Other Formats
Station Details ID: 054038 Name: NARRABRI AIRPORT AWS Lat: -30.32 Lon: 149.83 Height: 229.02 m
Data from the previous 72 hours. | See also: Recent months at Narrabri
Date/Time
EST
Temp
°C
App
Temp
°C
Dew
Point
Rel
Hum
%
Delta-T
°C
Wind Press
QNH
hPa
Press
MSL
hPa
Rain
since 9 am
mm
Dir
 
Spd
km/h
Gust
km/h
Spd
kts
Gust
kts
29/09:30pm 7.2 5.6 4.5 83 1.2 S 2 7 1 4 1023.7 - 0.0
29/09:00pm 9.3 6.4 4.7 73 2.1 SSE 9 9 5 5 1023.6 1023.7 0.0
29/08:30pm 11.4 8.1 4.8 64 3.0 SSE 11 15 6 8 1023.5 - 0.0
29/08:00pm 12.1 8.9 5.0 62 3.3 SE 11 15 6 8 1023.4 1023.5 0.0
29/07:30pm 12.7 9.5 4.9 59 3.6 SE 11 15 6 8 1023.2 - 0.0
29/07:00pm 13.4 9.8 5.1 57 3.9 SE 13 17 7 9 1023.1 1023.1 0.0
29/06:30pm 13.8 10.6 4.9 55 4.2 ESE 11 17 6 9 1022.9 - 0.0
29/06:00pm 14.6 11.0 4.9 52 4.6 SE 13 17 7 9 1022.6 1022.6 0.0
29/05:30pm 15.9 11.8 4.6 47 5.4 SE 15 22 8 12 1022.7 - 0.0
29/05:00pm 16.8 12.8 4.8 45 5.7 SE 15 20 8 11 1022.5 1022.5 0.0
29/04:30pm 17.4 12.4 4.7 43 6.1 SE 20 30 11 16 1022.4 - 0.0
29/04:00pm 17.6 12.8 4.9 43 6.1 SE 19 30 10 16 1022.4 1022.4 0.0
29/03:30pm 18.0 13.1 4.9 42 6.4 SE 20 33 11 18 1022.6 - 0.0
29/03:00pm 17.9 12.3 5.5 44 6.1 SSE 24 37 13 20 1022.7 1022.7 0.0
29/02:30pm 17.7 12.1 5.3 44 6.1 SSE 24 37 13 20 1022.9 - 0.0
29/02:00pm 17.7 12.5 5.3 44 6.0 SE 22 35 12 19 1023.1 1023.1 0.0
29/01:30pm 17.2 12.4 5.5 46 5.7 SE 20 30 11 16 1023.6 - 0.0
29/01:00pm 17.4 11.6 6.3 48 5.5 SSE 26 35 14 19 1024.0 1024.1 0.0
29/12:30pm 17.2 11.3 5.8 47 5.6 SE 26 37 14 20 1024.5 - 0.0
29/12:00pm 16.8 11.3 5.7 48 5.4 SSE 24 39 13 21 1025.0 1025.1 0.0
29/11:30am 15.8 11.1 6.0 52 4.8 SE 20 35 11 19 1025.6 - 0.0
29/11:00am 15.1 9.8 5.0 51 4.8 SSE 22 33 12 18 1026.0 1026.0 0.0
29/10:30am 14.9 10.5 6.5 57 4.1 SSE 19 26 10 14 1026.3 - 0.0
29/10:00am 14.0 9.6 6.4 60 3.7 S 19 24 10 13 1026.5 1026.5 0.0
29/09:30am 12.7 7.9 5.6 62 3.4 SSE 20 28 11 15 1026.7 - 0.0
29/09:00am 11.9 7.8 6.4 69 2.6 SSE 17 24 9 13 1026.9 1026.9 0.0
29/08:30am 11.1 6.6 6.3 72 2.3 SSE 19 24 10 13 1026.9 - 0.0
29/08:00am 9.7 5.6 6.2 79 1.6 S 17 22 9 12 1026.7 1026.7 0.0
29/07:30am 8.5 4.7 5.8 83 1.2 SSE 15 19 8 10 1026.3 - 0.0
29/07:00am 7.4 3.1 5.4 87 0.9 SSE 17 20 9 11 1025.9 1025.9 0.0
29/06:30am 7.2 2.9 5.3 88 0.9 SSE 17 22 9 12 1025.6 - 0.0
29/06:00am 7.4 3.5 5.2 86 1.0 SSE 15 22 8 12 1025.2 1025.3 0.0
29/05:30am 7.7 3.4 5.2 84 1.1 SSE 17 22 9 12 1024.9 - 0.0
29/05:00am 8.1 3.3 5.4 83 1.2 SE 20 28 11 15 1024.5 1024.6 0.0
29/04:30am 8.7 3.9 5.4 80 1.5 SSE 20 30 11 16 1024.5 - 0.0
29/04:00am 9.1 4.3 5.5 78 1.6 SSE 20 30 11 16 1024.5 1024.6 0.0
29/03:30am 9.4 4.2 5.6 77 1.8 SSE 22 32 12 17 1024.6 - 0.0
29/03:00am 9.5 3.9 5.5 76 1.8 SSE 24 39 13 21 1024.5 1024.6 0.0
29/02:30am 9.0 4.4 5.6 79 1.6 SSE 19 32 10 17 1024.6 - 0.0
29/02:00am 9.3 5.2 6.0 80 1.5 SE 17 24 9 13 1024.8 1024.9 0.0
29/01:30am 9.5 5.4 6.2 80 1.5 SSE 17 26 9 14 1025.0 - 0.0
29/01:00am 10.2 5.6 6.5 78 1.7 SSE 20 30 11 16 1024.9 1025.0 0.0
29/12:30am 10.4 6.1 6.9 79 1.7 SE 19 30 10 16 1024.9 - 0.0
29/12:00am 10.5 5.7 7.4 81 1.5 SSE 22 33 12 18 1025.0 1025.1 0.0
 
Date/Time
EST
Temp
°C
App
Temp
°C
Dew
Point
Rel
Hum
%
Delta-T
°C
Wind Press
QNH
hPa
Press
MSL
hPa
Rain
since 9 am
mm
Dir
 
Spd
km/h
Gust
km/h
Spd
kts
Gust
kts
28/11:30pm 10.4 7.3 7.3 81 1.5 SE 13 20 7 11 1025.1 - 0.0
28/11:00pm 10.9 7.7 7.0 77 1.9 SSE 13 20 7 11 1025.2 1025.3 0.0
28/10:30pm 11.9 7.5 7.4 74 2.2 SE 20 30 11 16 1025.1 - 0.0
28/10:00pm 11.9 8.0 7.2 73 2.3 SE 17 24 9 13 1025.1 1025.2 0.0
28/09:30pm 12.2 9.1 7.1 71 2.5 SE 13 19 7 10 1025.3 - 0.0
28/09:00pm 12.8 9.6 7.0 68 2.8 SE 13 20 7 11 1025.2 1025.3 0.0
28/08:30pm 12.8 8.9 7.3 69 2.7 SE 17 22 9 12 1024.8 - 0.0
28/08:00pm 13.1 9.6 7.1 67 2.9 SE 15 19 8 10 1024.6 1024.7 0.0
28/07:30pm 13.7 10.5 7.0 64 3.3 SE 13 17 7 9 1024.4 - 0.0
28/07:00pm 13.8 10.8 7.8 67 3.0 SSE 13 17 7 9 1024.1 1024.2 0.0
28/06:30pm 14.4 11.4 7.9 65 3.3 SSE 13 15 7 8 1023.9 - 0.0
28/06:00pm 15.5 11.8 8.0 61 3.8 SSE 17 22 9 12 1023.5 1023.6 0.0
28/05:30pm 16.7 13.3 7.6 55 4.6 SSE 15 30 8 16 1023.2 - 0.0
28/05:00pm 17.6 13.5 7.9 53 5.0 SSE 19 24 10 13 1022.9 1022.9 0.0
28/04:30pm 18.0 14.5 8.6 54 4.9 SSE 17 26 9 14 1022.6 - 0.0
28/04:00pm 18.4 14.2 8.1 51 5.3 SSE 20 32 11 17 1022.3 1022.3 0.0
28/03:30pm 18.4 13.6 8.7 53 5.1 SSE 24 33 13 18 1022.2 - 0.0
28/03:00pm 19.4 15.3 8.7 50 5.6 SSE 20 37 11 20 1022.0 1022.0 0.0
28/02:30pm 18.4 14.4 9.2 55 4.9 S 20 26 11 14 1022.1 - 0.0
28/02:00pm 18.9 13.5 9.4 54 5.0 S 28 39 15 21 1022.1 1022.1 0.0
28/01:30pm 19.4 16.5 10.9 58 4.7 SE 17 30 9 16 1022.1 - 0.0
28/01:00pm 18.7 13.7 9.5 55 4.9 SSE 26 37 14 20 1022.3 1022.3 0.0
28/12:30pm 19.1 14.7 10.4 57 4.7 SSE 24 37 13 20 1022.5 - 0.0
28/12:00pm 17.8 13.3 9.9 60 4.2 SE 24 35 13 19 1022.8 1022.8 0.0
28/11:30am 17.8 12.7 9.2 57 4.5 SSE 26 41 14 22 1023.1 - 0.0
28/11:00am 16.8 12.3 10.0 64 3.6 SE 24 37 13 20 1023.3 1023.3 0.0
28/10:30am 16.2 12.1 10.1 67 3.2 SSE 22 35 12 19 1023.5 - 0.0
28/10:00am 15.2 10.3 9.8 70 2.8 SE 26 37 14 20 1023.5 1023.6 0.0
28/09:30am 14.2 8.3 9.0 71 2.7 SSE 30 43 16 23 1023.4 - 0.0
28/09:00am 13.3 9.3 9.0 75 2.2 SE 20 32 11 17 1023.3 1023.3 1.8
28/08:30am 12.2 7.6 8.1 76 2.0 SSE 22 32 12 17 1023.1 - 1.8
28/08:00am 11.6 7.9 8.1 79 1.7 SSE 17 28 9 15 1022.8 1022.8 1.8
28/07:30am 10.4 6.6 7.6 83 1.4 SE 17 24 9 13 1022.5 - 1.8
28/07:00am 9.5 5.6 7.3 86 1.0 SSE 17 26 9 14 1022.2 1022.2 1.8
28/06:30am 9.0 5.9 7.1 88 0.9 SE 13 20 7 11 1021.9 - 1.8
28/06:00am 9.0 5.4 6.8 86 1.0 SE 15 24 8 13 1021.5 1021.5 1.8
28/05:30am 9.0 5.7 6.6 85 1.1 SSE 13 20 7 11 1021.3 - 1.8
28/05:00am 9.3 5.4 6.9 85 1.1 SSE 17 20 9 11 1021.2 1021.2 1.8
28/04:30am 9.5 6.0 7.1 85 1.1 SE 15 20 8 11 1021.1 - 1.8
28/04:00am 9.7 6.0 7.8 88 0.9 SE 17 24 9 13 1021.1 1021.1 1.8
28/03:30am 9.5 6.3 8.3 92 0.6 SE 15 22 8 12 1021.2 - 1.8
28/03:00am 9.5 6.3 8.6 94 0.4 SE 15 20 8 11 1021.1 1021.1 1.8
28/02:30am 9.5 7.1 8.7 95 0.4 SSE 11 17 6 9 1021.4 - 1.8
28/02:00am 9.6 7.2 8.8 95 0.4 SSE 11 17 6 9 1021.5 1021.5 1.8
28/01:30am 10.2 7.5 9.1 93 0.6 SE 13 19 7 10 1021.5 - 1.8
28/01:00am 10.5 7.4 8.8 89 0.8 SSE 15 24 8 13 1021.6 1021.6 1.8
28/12:30am 11.0 7.9 8.9 87 1.1 SSE 15 22 8 12 1021.6 - 1.8
28/12:00am 11.4 7.6 9.1 86 1.2 SSE 19 28 10 15 1021.5 1021.5 1.8
 
Date/Time
EST
Temp
°C
App
Temp
°C
Dew
Point
Rel
Hum
%
Delta-T
°C
Wind Press
QNH
hPa
Press
MSL
hPa
Rain
since 9 am
mm
Dir
 
Spd
km/h
Gust
km/h
Spd
kts
Gust
kts
27/11:30pm 11.2 7.7 8.8 85 1.2 SSE 17 24 9 13 1021.8 - 1.8
27/11:00pm 11.5 7.7 9.2 86 1.2 SSE 19 26 10 14 1021.7 1021.7 1.8
27/10:30pm 11.4 8.0 9.1 86 1.2 SSE 17 22 9 12 1022.0 - 1.8
27/10:00pm 11.6 8.2 9.0 84 1.3 SSE 17 22 9 12 1021.8 1021.8 1.8
27/09:30pm 12.1 8.7 9.1 82 1.5 SSE 17 20 9 11 1021.7 - 1.8
27/09:00pm 12.5 9.1 9.1 80 1.7 SSE 17 22 9 12 1021.7 1021.7 1.8
27/08:30pm 12.7 9.3 9.2 79 1.8 SSE 17 24 9 13 1021.7 - 1.8
27/08:00pm 13.2 9.7 8.9 75 2.2 SSE 17 22 9 12 1021.7 1021.7 1.8
27/07:30pm 14.2 9.9 9.4 73 2.5 SSE 22 30 12 16 1021.4 - 1.8
27/07:00pm 13.4 11.6 12.1 92 0.7 S 13 17 7 9 1021.2 1021.2 1.8
27/06:30pm 12.5 11.6 11.4 93 0.6 SW 7 9 4 5 1020.7 - 1.8
27/06:00pm 13.0 11.9 10.7 86 1.2 SSE 7 9 4 5 1020.5 1020.6 1.8
27/05:30pm 14.3 12.5 10.9 80 1.8 SSE 11 15 6 8 1020.2 - 1.8
27/05:00pm 15.1 12.9 10.9 76 2.2 S 13 20 7 11 1019.7 1019.8 1.8
27/04:30pm 15.2 13.5 11.2 77 2.2 SSE 11 17 6 9 1019.8 - 1.8
27/04:00pm 14.8 13.0 10.8 77 2.1 SSE 11 17 6 9 1019.7 1019.8 1.8
27/03:30pm 15.1 12.4 10.3 73 2.5 SE 15 22 8 12 1019.6 - 1.8
27/03:00pm 14.7 12.3 10.1 74 2.4 SSE 13 20 7 11 1019.8 1019.9 1.8
27/02:30pm 14.6 11.7 11.0 79 1.9 SSE 17 28 9 15 1020.0 - 1.8
27/02:00pm 13.9 10.5 11.4 85 1.3 S 20 30 11 16 1020.2 1020.3 1.8
27/01:30pm 13.5 10.0 12.1 91 0.8 SSE 22 35 12 19 1020.1 - 1.8
27/01:00pm 13.0 10.1 12.2 95 0.4 SSE 19 30 10 16 1020.0 1020.1 1.8
27/12:30pm 12.2 9.3 12.2 100 0.0 SSE 19 28 10 15 1020.2 - 1.8
27/12:00pm 12.0 - - - - SSE 22 32 12 17 1020.2 1020.3 1.6
27/11:30am 11.7 - - - - SSE 24 35 13 19 1020.2 - 1.6
27/11:00am 11.4 - - - - SSE 22 32 12 17 1020.9 1020.9 1.4
27/10:30am 11.4 - - - - SSE 19 26 10 14 1021.1 - 1.0
27/10:00am 11.3 - - - - SE 19 28 10 15 1021.1 1021.1 0.8
27/09:30am 11.2 - - - - SSE 26 41 14 22 1020.6 - 0.0
27/09:00am 11.2 - - - - SSE 17 28 9 15 1020.4 1020.5 20.0
27/08:30am 10.6 - - - - S 13 19 7 10 1020.7 - 19.6
27/08:00am 10.5 - - - - SSE 13 19 7 10 1020.6 1020.7 19.0
27/07:30am 10.3 - - - - SSE 15 20 8 11 1020.3 - 18.6
27/07:00am 10.3 - - - - SE 15 19 8 10 1019.8 1019.9 18.6
27/06:30am 10.2 - - - - SE 13 17 7 9 1019.5 - 18.4
27/06:00am 10.4 - - - - ESE 9 13 5 7 1019.5 1019.5 18.4
27/05:30am 10.4 - - - - SE 11 15 6 8 1019.4 - 18.4
27/05:00am 10.5 - - - - SE 15 24 8 13 1019.1 1019.1 18.0
27/04:30am 10.4 - - - - ESE 15 24 8 13 1019.1 - 18.0
27/04:00am 10.3 - - - - SE 22 32 12 17 1018.8 1018.8 17.0
27/03:30am 10.2 - - - - SSE 17 24 9 13 1018.7 - 16.8
27/03:00am 9.9 6.7 9.9 100 0.0 SE 17 26 9 14 1018.6 1018.6 16.8
27/02:30am 9.9 6.3 9.8 99 0.1 SSE 19 28 10 15 1018.7 - 16.8
27/02:00am 10.0 5.8 9.9 99 0.1 SSE 22 32 12 17 1019.0 1019.0 16.8
27/01:30am 10.0 - - - - SE 20 30 11 16 1019.4 - 16.8
27/01:00am 9.7 5.9 9.2 97 0.2 SE 19 26 10 14 1019.5 1019.5 16.8
27/12:30am 9.6 5.7 9.5 99 0.1 ESE 20 28 11 15 1019.8 - 16.8
27/12:00am 9.8 5.6 9.8 100 0.0 SE 22 28 12 15 1019.8 1019.9 16.8
 
Date/Time
EST
Temp
°C
App
Temp
°C
Dew
Point
Rel
Hum
%
Delta-T
°C
Wind Press
QNH
hPa
Press
MSL
hPa
Rain
since 9 am
mm
Dir
 
Spd
km/h
Gust
km/h
Spd
kts
Gust
kts
26/11:30pm 10.1 6.5 9.9 99 0.1 ESE 19 24 10 13 1020.6 - 16.6
26/11:00pm 10.3 6.6 9.5 95 0.4 E 19 24 10 13 1021.0 1021.0 16.2
26/10:30pm 10.3 7.1 10.0 98 0.2 E 17 24 9 13 1021.3 - 15.0
26/10:00pm 10.7 7.2 10.2 97 0.3 E 19 24 10 13 1021.2 1021.2 13.0

Other Formats:

Comma delimited format used in spreadsheet applications
http://www.bom.gov.au/fwo/IDN60801/IDN60801.95734.axf

JavaScript Object Notation format (JSON) in row-major order
http://www.bom.gov.au/fwo/IDN60801/IDN60801.95734.json